Time;durP1;ratioP1;P1;durP2;ratioP2;P2;SDS_P1;SDS_P2;PMS_P1;PMS_P2;Temp;Humidity;BMP_temperature;BMP_pressure;BME280_temperature;BME280_humidity;BME280_pressure;Samples;Min_cycle;Max_cycle;Signal;HPM_P1;HPM_P2
2024/01/02 00:01:30;;;;;;;14.80;12.73;;;7.10;99.90;;;;;;4919149;29;20204;-81
2024/01/02 00:03:57;;;;;;;13.87;12.73;;;7.00;99.90;;;;;;4934825;29;20196;-80
2024/01/02 00:06:24;;;;;;;22.23;12.77;;;7.10;99.90;;;;;;4918654;29;20200;-77
2024/01/02 00:08:51;;;;;;;13.63;12.27;;;7.10;99.90;;;;;;4934693;29;20319;-82
2024/01/02 00:11:19;;;;;;;13.70;12.33;;;7.10;99.90;;;;;;4927274;29;20204;-79
2024/01/02 00:13:47;;;;;;;13.30;12.23;;;7.20;99.90;;;;;;4923943;29;20326;-75
2024/01/02 00:16:14;;;;;;;13.10;12.20;;;7.20;99.90;;;;;;4917594;29;20204;-77
2024/01/02 00:18:42;;;;;;;13.07;12.20;;;7.20;99.90;;;;;;4911776;29;20194;-77
2024/01/02 00:21:09;;;;;;;13.83;12.43;;;7.20;99.90;;;;;;4928370;29;20198;-76
2024/01/02 00:23:36;;;;;;;12.60;11.50;;;7.20;99.90;;;;;;4923167;29;20200;-78
2024/01/02 00:26:04;;;;;;;20.37;12.43;;;7.20;99.90;;;;;;4922602;29;20199;-76
2024/01/02 00:28:31;;;;;;;12.70;11.70;;;7.30;99.90;;;;;;4925033;29;20188;-76
2024/01/02 00:30:58;;;;;;;13.07;12.03;;;7.20;99.90;;;;;;4935937;29;20204;-76
2024/01/02 00:33:25;;;;;;;13.47;12.37;;;7.30;99.90;;;;;;4929290;29;20187;-77
2024/01/02 00:35:52;;;;;;;12.77;11.97;;;7.20;99.90;;;;;;4921629;29;20203;-76
2024/01/02 00:38:19;;;;;;;13.03;11.90;;;7.10;99.90;;;;;;4936953;29;20286;-77
2024/01/02 00:40:50;;;;;;;14.50;12.20;;;7.10;99.90;;;;;;4953539;28;20227;-76
2024/01/02 00:43:17;;;;;;;13.90;12.20;;;7.10;99.90;;;;;;4937710;29;20195;-81
2024/01/02 00:45:44;;;;;;;13.20;12.07;;;7.10;99.90;;;;;;4949620;28;20204;-77
2024/01/02 00:48:12;;;;;;;12.97;11.67;;;7.20;99.90;;;;;;4933124;29;20258;-79
2024/01/02 00:50:39;;;;;;;12.70;11.80;;;7.20;99.90;;;;;;4943802;28;20218;-78
2024/01/02 00:53:06;;;;;;;12.40;11.60;;;7.20;99.90;;;;;;4916503;29;20291;-78
2024/01/02 00:55:33;;;;;;;12.73;11.70;;;7.20;99.90;;;;;;4925946;29;20203;-76
2024/01/02 00:58:00;;;;;;;12.73;11.70;;;7.20;99.90;;;;;;4931259;29;20219;-76
2024/01/02 01:00:27;;;;;;;12.40;11.40;;;7.20;99.90;;;;;;4946750;29;20193;-91
2024/01/02 01:02:54;;;;;;;12.90;11.70;;;7.20;99.90;;;;;;4931855;29;20204;-81
2024/01/02 01:05:21;;;;;;;12.50;11.60;;;7.10;99.90;;;;;;4948922;29;20188;-78
2024/01/02 01:07:49;;;;;;;12.40;11.60;;;7.20;99.90;;;;;;4936907;29;20247;-77
2024/01/02 01:10:16;;;;;;;13.83;12.83;;;7.10;99.90;;;;;;4953380;29;20267;-76
2024/01/02 01:12:47;;;;;;;13.30;12.10;;;7.10;99.90;;;;;;4942963;28;20232;-77
2024/01/02 01:15:14;;;;;;;12.83;12.00;;;7.10;99.90;;;;;;4923965;29;20204;-78
2024/01/02 01:17:41;;;;;;;12.70;11.77;;;7.00;99.90;;;;;;4940763;28;20208;-81
2024/01/02 01:20:10;;;;;;;12.77;11.77;;;7.00;99.90;;;;;;4937275;29;20192;-80
2024/01/02 01:22:37;;;;;;;12.40;11.60;;;7.00;99.90;;;;;;4936273;29;20703;-84
2024/01/02 01:25:04;;;;;;;12.07;11.37;;;7.00;99.90;;;;;;4936902;29;20291;-86
2024/01/02 01:27:31;;;;;;;12.50;11.70;;;7.00;99.90;;;;;;4933528;29;20219;-83
2024/01/02 01:30:00;;;;;;;12.63;11.50;;;7.00;99.90;;;;;;4936830;29;20199;-79
2024/01/02 01:32:28;;;;;;;11.90;11.13;;;6.90;99.90;;;;;;4935055;29;20203;-79
2024/01/02 01:34:56;;;;;;;12.33;11.40;;;6.90;99.90;;;;;;4929473;29;20192;-80
2024/01/02 01:37:23;;;;;;;11.83;11.13;;;6.90;99.90;;;;;;4936203;29;20708;-77
2024/01/02 01:39:50;;;;;;;13.33;12.17;;;6.90;99.90;;;;;;4935084;29;20594;-78
2024/01/02 01:42:17;;;;;;;12.87;11.77;;;6.90;99.90;;;;;;4934085;29;20222;-77
2024/01/02 01:44:44;;;;;;;13.20;12.40;;;6.80;99.90;;;;;;4953834;28;20204;-86
2024/01/02 01:47:11;;;;;;;13.00;12.07;;;6.70;99.90;;;;;;4934098;29;20660;-80
2024/01/02 01:49:39;;;;;;;12.93;12.13;;;6.80;99.90;;;;;;4948275;28;20219;-78
2024/01/02 01:52:07;;;;;;;13.10;12.27;;;6.80;99.90;;;;;;4949769;28;20212;-76
2024/01/02 01:54:34;;;;;;;12.93;12.23;;;6.90;99.90;;;;;;4916025;29;20252;-76
2024/01/02 01:57:02;;;;;;;13.67;12.57;;;6.80;99.90;;;;;;4944170;28;20752;-78
2024/01/02 01:59:31;;;;;;;13.23;12.53;;;6.80;99.90;;;;;;4935299;29;20239;-79
2024/01/02 02:01:59;;;;;;;14.80;13.70;;;6.80;99.90;;;;;;4938203;29;20201;-80
2024/01/02 02:04:28;;;;;;;13.30;12.63;;;6.90;99.90;;;;;;4949098;28;20199;-77
2024/01/02 02:06:56;;;;;;;13.70;13.00;;;6.90;99.90;;;;;;4918886;29;20203;-77
2024/01/02 02:09:23;;;;;;;14.23;13.20;;;6.80;99.90;;;;;;4924846;29;20196;-76
2024/01/02 02:11:50;;;;;;;14.00;13.10;;;6.80;99.90;;;;;;4933200;29;20211;-75
2024/01/02 02:14:18;;;;;;;14.10;13.00;;;6.80;99.90;;;;;;4938753;29;20702;-81
2024/01/02 02:16:45;;;;;;;14.23;13.33;;;6.80;99.90;;;;;;4953101;28;20211;-77
2024/01/02 02:19:12;;;;;;;14.60;13.60;;;6.80;99.90;;;;;;4939136;29;20250;-78
2024/01/02 02:21:39;;;;;;;14.50;13.60;;;6.70;99.90;;;;;;4943725;28;20201;-80
2024/01/02 02:24:06;;;;;;;15.20;14.20;;;6.70;99.90;;;;;;4956756;29;20290;-78
2024/01/02 02:26:33;;;;;;;16.40;15.40;;;6.80;99.90;;;;;;4940032;29;20201;-80
2024/01/02 02:29:00;;;;;;;16.73;15.70;;;6.80;99.90;;;;;;4956313;29;20219;-77
2024/01/02 02:31:28;;;;;;;16.80;15.80;;;6.80;99.90;;;;;;4945390;29;20611;-78
2024/01/02 02:33:54;;;;;;;16.97;15.97;;;6.80;99.90;;;;;;4939072;29;20691;-77
2024/01/02 02:36:22;;;;;;;16.47;15.37;;;6.70;99.90;;;;;;4961203;28;20246;-78
2024/01/02 02:38:49;;;;;;;17.23;16.00;;;6.70;99.90;;;;;;4942046;29;20261;-79
2024/01/02 02:41:16;;;;;;;17.27;15.90;;;6.60;99.90;;;;;;4940942;29;20544;-78
2024/01/02 02:43:43;;;;;;;16.83;15.60;;;6.70;99.90;;;;;;4963654;28;20281;-77
2024/01/02 02:46:10;;;;;;;16.40;15.40;;;6.70;99.90;;;;;;4942058;29;20191;-76
2024/01/02 02:48:37;;;;;;;16.20;15.30;;;6.70;99.90;;;;;;4943269;29;20210;-76
2024/01/02 02:51:04;;;;;;;17.47;16.17;;;6.80;99.90;;;;;;4939659;29;20289;-76
2024/01/02 02:53:31;;;;;;;17.67;16.60;;;6.70;99.90;;;;;;4965494;28;20308;-78
2024/01/02 02:55:58;;;;;;;17.57;16.57;;;6.60;1.00;;;;;;4958749;28;20483;-76
2024/01/02 02:58:26;;;;;;;17.60;16.60;;;6.60;1.00;;;;;;4939016;29;20215;-78
2024/01/02 03:04:53;;;;;;;18.00;16.90;;;6.60;1.00;;;;;;4953490;29;20189;-75
2024/01/02 03:07:20;;;;;;;17.57;16.57;;;6.50;1.00;;;;;;4940342;29;20206;-77
2024/01/02 03:09:47;;;;;;;17.10;16.10;;;6.50;1.00;;;;;;4955586;28;20603;-75
2024/01/02 03:12:14;;;;;;;17.57;16.57;;;6.50;1.00;;;;;;4932699;29;20236;-75
2024/01/02 03:14:43;;;;;;;17.63;16.63;;;6.50;1.00;;;;;;4937720;29;20260;-77
2024/01/02 03:17:10;;;;;;;18.20;17.10;;;6.50;1.00;;;;;;4952054;29;20212;-80
2024/01/02 03:19:37;;;;;;;18.13;17.03;;;6.50;1.00;;;;;;4955073;29;20574;-83
2024/01/02 03:22:04;;;;;;;18.17;17.07;;;6.40;1.00;;;;;;4941489;29;20211;-77
2024/01/02 03:24:31;;;;;;;19.03;17.83;;;6.40;99.90;;;;;;4924004;29;20844;-77
2024/01/02 03:26:58;;;;;;;19.20;18.00;;;6.40;99.90;;;;;;4937254;29;20199;-78
2024/01/02 03:29:28;;;;;;;19.47;18.27;;;6.40;1.00;;;;;;4933029;29;20574;-81
2024/01/02 03:31:55;;;;;;;18.63;17.43;;;6.40;1.00;;;;;;4934921;29;20201;-79
2024/01/02 03:34:22;;;;;;;18.40;17.20;;;6.30;1.00;;;;;;4921222;29;20201;-79
2024/01/02 03:36:49;;;;;;;18.07;16.97;;;6.40;1.00;;;;;;4918984;29;20303;-76
2024/01/02 03:39:16;;;;;;;18.27;17.17;;;6.30;1.00;;;;;;4943808;29;20641;-81
2024/01/02 03:41:43;;;;;;;18.80;17.60;;;6.30;99.90;;;;;;4928442;29;20229;-75
2024/01/02 03:44:10;;;;;;;18.47;17.37;;;6.30;99.90;;;;;;4921457;29;20204;-75
2024/01/02 03:46:37;;;;;;;18.30;17.20;;;6.30;99.90;;;;;;4941286;29;20192;-78
2024/01/02 03:49:04;;;;;;;18.00;16.90;;;6.30;59.90;;;;;;4943030;29;20232;-77
2024/01/02 03:51:31;;;;;;;17.80;16.70;;;6.20;99.90;;;;;;4928012;29;20211;-76
2024/01/02 03:53:58;;;;;;;17.80;16.70;;;6.20;99.90;;;;;;4939035;29;20211;-79
2024/01/02 03:56:25;;;;;;;17.80;16.70;;;6.20;99.90;;;;;;4922617;29;20561;-81
2024/01/02 03:58:53;;;;;;;17.90;16.80;;;6.30;99.90;;;;;;4948303;29;20271;-76
2024/01/02 04:01:20;;;;;;;18.00;16.90;;;6.10;99.90;;;;;;4949014;29;20195;-79
2024/01/02 04:03:47;;;;;;;18.13;17.03;;;6.20;99.90;;;;;;4923995;29;20566;-77
2024/01/02 04:06:14;;;;;;;18.50;17.40;;;6.20;99.90;;;;;;4924733;29;20188;-78
2024/01/02 04:08:41;;;;;;;18.20;17.10;;;6.20;99.90;;;;;;4935126;29;20668;-79
2024/01/02 04:11:13;;;;;;;18.20;17.10;;;6.20;99.90;;;;;;4918627;29;20391;-77
2024/01/02 04:13:40;;;;;;;17.90;16.80;;;6.20;99.90;;;;;;4933980;29;20311;-78
2024/01/02 04:16:07;;;;;;;18.30;17.20;;;6.20;99.90;;;;;;4938230;29;20207;-79
2024/01/02 04:18:34;;;;;;;18.30;17.20;;;6.20;99.90;;;;;;4936682;29;20208;-80
2024/01/02 04:21:02;;;;;;;18.30;17.20;;;6.30;99.90;;;;;;4952741;28;20649;-80
2024/01/02 04:23:29;;;;;;;18.70;17.60;;;6.20;99.90;;;;;;4937561;29;20533;-77
2024/01/02 04:25:56;;;;;;;17.87;16.77;;;6.20;99.90;;;;;;4937763;29;20203;-77
2024/01/02 04:28:23;;;;;;;18.60;17.40;;;6.20;99.90;;;;;;4938062;29;20196;-77
2024/01/02 04:30:50;;;;;;;17.50;16.40;;;6.10;99.90;;;;;;4953327;29;20238;-80
2024/01/02 04:33:17;;;;;;;18.40;17.20;;;6.10;99.90;;;;;;4952811;29;20263;-77
2024/01/02 04:35:44;;;;;;;18.37;17.17;;;6.10;99.90;;;;;;4953455;29;20250;-79
2024/01/02 04:38:11;;;;;;;18.10;16.90;;;6.10;99.90;;;;;;4935103;29;20251;-81
2024/01/02 04:40:38;;;;;;;15.60;14.60;;;6.10;99.90;;;;;;4953909;29;20294;-78
2024/01/02 04:43:06;;;;;;;15.83;14.83;;;5.90;99.90;;;;;;4953423;29;20212;-77
2024/01/02 04:45:33;;;;;;;16.20;15.20;;;6.00;99.90;;;;;;4938077;29;20204;-77
2024/01/02 04:48:00;;;;;;;16.10;15.10;;;5.90;99.90;;;;;;4934092;29;20554;-78
2024/01/02 04:50:28;;;;;;;16.07;15.07;;;5.90;99.90;;;;;;4950056;28;20238;-84
2024/01/02 04:52:55;;;;;;;15.20;14.30;;;5.90;99.90;;;;;;4940218;28;20200;-88
2024/01/02 04:55:22;;;;;;;15.03;14.13;;;5.90;99.90;;;;;;4935118;29;20196;-88
2024/01/02 04:57:49;;;;;;;15.60;14.60;;;5.90;99.90;;;;;;4940336;29;20211;-79
2024/01/02 05:00:16;;;;;;;16.40;15.30;;;5.90;99.90;;;;;;4961055;28;20258;-80
2024/01/02 05:02:48;;;;;;;16.40;15.40;;;5.90;99.90;;;;;;4938189;29;20236;-79
2024/01/02 05:05:14;;;;;;;16.50;15.50;;;5.90;99.90;;;;;;4953523;29;20243;-90
2024/01/02 05:07:44;;;;;;;16.60;15.50;;;5.80;99.90;;;;;;4946337;28;20206;-79
2024/01/02 05:10:11;;;;;;;16.63;15.53;;;5.90;99.90;;;;;;4952079;29;20212;-85
2024/01/02 05:12:38;;;;;;;15.83;14.83;;;5.90;99.90;;;;;;4930414;29;20636;-79
2024/01/02 05:15:07;;;;;;;16.43;15.43;;;5.90;99.90;;;;;;4937443;29;20203;-78
2024/01/02 05:17:34;;;;;;;15.20;14.30;;;5.90;99.90;;;;;;4950786;29;20214;-80
2024/01/02 05:20:02;;;;;;;15.03;14.13;;;5.80;99.90;;;;;;4942265;29;20191;-78
2024/01/02 05:22:29;;;;;;;14.67;13.77;;;6.00;99.90;;;;;;4920649;29;20203;-78
2024/01/02 05:24:59;;;;;;;15.40;14.50;;;6.10;99.90;;;;;;4952032;29;20199;-79
2024/01/02 05:27:27;;;;;;;14.80;13.90;;;6.00;99.90;;;;;;4959260;28;20554;-79
2024/01/02 05:29:54;;;;;;;15.00;14.10;;;6.00;99.90;;;;;;4920220;29;20247;-77
2024/01/02 05:32:21;;;;;;;15.20;14.30;;;6.00;99.90;;;;;;4920134;29;20644;-83
2024/01/02 05:34:48;;;;;;;14.60;13.80;;;6.00;99.90;;;;;;4933228;29;20236;-79
2024/01/02 05:37:16;;;;;;;14.73;13.93;;;6.10;99.90;;;;;;4917320;29;20251;-83
2024/01/02 05:39:44;;;;;;;14.97;14.07;;;6.20;99.90;;;;;;4932744;29;21017;-78
2024/01/02 05:42:11;;;;;;;15.70;14.80;;;6.20;99.90;;;;;;4950661;29;20286;-76
2024/01/02 05:44:37;;;;;;;15.20;14.30;;;6.30;99.90;;;;;;4953132;29;20202;-82
2024/01/02 05:47:05;;;;;;;15.40;14.50;;;6.20;99.90;;;;;;4936376;29;20202;-77
2024/01/02 05:49:32;;;;;;;15.13;14.23;;;6.30;99.90;;;;;;4951761;29;20208;-78
2024/01/02 05:51:59;;;;;;;14.57;13.77;;;6.30;99.90;;;;;;4951838;29;20207;-80
2024/01/02 05:54:26;;;;;;;14.93;14.03;;;6.40;99.90;;;;;;4962779;28;20203;-76
2024/01/02 05:56:53;;;;;;;14.60;13.80;;;6.30;99.90;;;;;;4944857;29;20298;-78
2024/01/02 05:59:20;;;;;;;14.40;13.60;;;6.40;99.90;;;;;;4930096;29;20628;-77
2024/01/02 06:01:47;;;;;;;14.30;13.50;;;6.50;99.90;;;;;;4946572;29;20577;-79
2024/01/02 06:04:14;;;;;;;13.77;12.97;;;6.60;99.90;;;;;;4907450;29;20661;-81
2024/01/02 06:06:41;;;;;;;14.50;13.70;;;6.70;99.90;;;;;;4950894;29;20211;-79
2024/01/02 06:09:08;;;;;;;13.97;13.17;;;6.70;99.90;;;;;;4931780;29;20216;-77
2024/01/02 06:11:35;;;;;;;13.90;13.10;;;6.90;99.90;;;;;;4943893;29;20677;-79
2024/01/02 06:14:02;;;;;;;13.73;12.93;;;6.80;99.90;;;;;;4943329;29;20250;-77
2024/01/02 06:16:29;;;;;;;14.00;13.20;;;7.00;99.90;;;;;;4951088;29;20203;-76
2024/01/02 06:18:56;;;;;;;13.63;12.93;;;7.10;99.90;;;;;;4934906;29;20223;-79
2024/01/02 06:21:23;;;;;;;14.10;13.30;;;7.10;99.90;;;;;;4935038;29;20278;-76
2024/01/02 06:23:50;;;;;;;14.03;13.23;;;7.30;99.90;;;;;;4919891;29;20266;-77
2024/01/02 06:26:23;;;;;;;13.10;12.40;;;7.40;99.90;;;;;;4951690;29;20195;-82
2024/01/02 06:28:50;;;;;;;13.47;12.77;;;7.40;99.90;;;;;;4948080;28;20295;-77
2024/01/02 06:31:20;;;;;;;13.10;12.40;;;7.50;99.90;;;;;;4931314;29;20568;-76
2024/01/02 06:33:47;;;;;;;13.30;12.60;;;7.60;99.90;;;;;;4948648;29;20274;-77
2024/01/02 06:36:14;;;;;;;13.30;12.60;;;7.50;99.90;;;;;;4947898;29;20208;-78
2024/01/02 06:38:41;;;;;;;13.30;12.60;;;7.60;99.90;;;;;;4957854;28;20226;-79
2024/01/02 06:41:09;;;;;;;13.40;12.70;;;7.70;99.90;;;;;;4951354;29;20299;-75
2024/01/02 06:43:36;;;;;;;13.43;12.73;;;7.70;99.90;;;;;;4935004;29;20203;-86
2024/01/02 06:46:03;;;;;;;13.40;12.70;;;7.80;99.90;;;;;;4954039;29;20202;-79
2024/01/02 06:48:30;;;;;;;13.40;12.70;;;7.80;99.90;;;;;;4938860;29;20532;-77
2024/01/02 06:50:57;;;;;;;13.93;13.13;;;7.90;99.90;;;;;;4937415;29;20216;-77
2024/01/02 06:53:27;;;;;;;13.70;12.90;;;8.00;99.90;;;;;;4930526;29;20206;-86
2024/01/02 06:55:54;;;;;;;13.60;12.80;;;8.00;99.90;;;;;;4960512;28;20570;-77
2024/01/02 06:58:22;;;;;;;13.40;12.70;;;8.10;99.90;;;;;;4934357;29;20276;-76
2024/01/02 07:00:49;;;;;;;14.03;13.23;;;8.10;99.90;;;;;;4935466;29;20652;-77
2024/01/02 07:03:17;;;;;;;14.63;13.83;;;8.10;99.90;;;;;;4938235;29;20286;-76
2024/01/02 07:05:44;;;;;;;14.37;13.57;;;8.20;99.90;;;;;;4938295;29;20195;-77
2024/01/02 07:08:11;;;;;;;14.70;13.90;;;8.20;99.90;;;;;;4937926;29;20195;-77
2024/01/02 07:10:38;;;;;;;14.40;13.60;;;8.20;99.90;;;;;;4938278;29;20315;-79
2024/01/02 07:13:06;;;;;;;14.73;13.83;;;8.20;99.90;;;;;;4935103;29;20247;-78
2024/01/02 07:15:34;;;;;;;14.97;14.07;;;8.30;99.90;;;;;;4935228;29;20212;-76
2024/01/02 07:18:01;;;;;;;14.13;13.33;;;8.40;99.90;;;;;;4934741;29;20204;-81
2024/01/02 07:20:28;;;;;;;14.03;13.23;;;8.30;99.90;;;;;;4919462;29;20200;-77
2024/01/02 07:22:56;;;;;;;13.93;13.13;;;8.40;99.90;;;;;;4918618;29;20211;-76
2024/01/02 07:25:24;;;;;;;13.60;12.80;;;8.40;99.90;;;;;;4918821;29;20200;-84
2024/01/02 07:27:51;;;;;;;13.90;13.10;;;8.50;99.90;;;;;;4920088;29;20208;-77
2024/01/02 07:30:18;;;;;;;13.77;12.97;;;8.50;99.90;;;;;;4920790;29;20219;-75
2024/01/02 07:32:45;;;;;;;13.60;12.80;;;8.50;99.90;;;;;;4934969;29;20561;-80
2024/01/02 07:35:14;;;;;;;13.20;12.50;;;8.50;99.90;;;;;;4934701;29;20209;-78
2024/01/02 07:37:41;;;;;;;13.37;12.63;;;8.60;99.90;;;;;;4918443;29;20227;-82
2024/01/02 07:40:08;;;;;;;12.87;12.17;;;8.60;99.90;;;;;;4924217;29;20212;-75
2024/01/02 07:42:35;;;;;;;12.77;12.07;;;8.60;99.90;;;;;;4921400;29;20264;-76
2024/01/02 07:45:02;;;;;;;12.40;11.70;;;8.60;99.90;;;;;;4921188;29;20206;-76
2024/01/02 07:47:29;;;;;;;12.60;11.90;;;8.60;99.90;;;;;;4929741;29;20203;-78
2024/01/02 07:49:57;;;;;;;12.50;11.80;;;8.70;99.90;;;;;;4936722;29;20215;-79
2024/01/02 07:52:24;;;;;;;12.47;11.77;;;8.70;99.90;;;;;;4905621;29;20256;-77
2024/01/02 07:54:51;;;;;;;13.57;12.77;;;8.70;99.90;;;;;;4933602;29;20551;-76
2024/01/02 07:57:18;;;;;;;13.23;12.53;;;8.70;99.90;;;;;;4931001;29;20212;-76
2024/01/02 07:59:45;;;;;;;13.10;12.40;;;8.80;99.90;;;;;;4934819;29;20236;-76
2024/01/02 08:02:12;;;;;;;13.30;12.50;;;8.70;99.90;;;;;;4919745;29;20712;-75
2024/01/02 08:04:39;;;;;;;12.40;11.70;;;8.80;99.90;;;;;;4925136;29;20223;-77
2024/01/02 08:07:06;;;;;;;12.30;11.60;;;8.80;99.90;;;;;;4919909;29;20547;-79
2024/01/02 08:09:34;;;;;;;11.60;11.00;;;8.90;99.90;;;;;;4924502;29;20689;-76
2024/01/02 08:12:01;;;;;;;12.30;11.60;;;8.90;99.90;;;;;;4936107;29;20234;-78
2024/01/02 08:14:27;;;;;;;11.77;11.17;;;8.90;99.90;;;;;;4958483;29;20599;-77
2024/01/02 08:16:54;;;;;;;11.50;10.90;;;8.90;99.90;;;;;;4942690;29;20198;-79
2024/01/02 08:19:23;;;;;;;11.70;11.10;;;9.00;99.90;;;;;;4942438;29;20230;-75
2024/01/02 08:21:50;;;;;;;11.47;10.87;;;9.10;99.90;;;;;;4942822;29;20195;-78
2024/01/02 08:24:18;;;;;;;11.10;10.50;;;9.10;99.90;;;;;;4942830;29;20302;-77
2024/01/02 08:26:45;;;;;;;11.30;10.70;;;9.10;99.90;;;;;;4954863;29;20204;-75
2024/01/02 08:29:12;;;;;;;11.20;10.60;;;9.20;99.90;;;;;;4957459;29;20238;-77
2024/01/02 08:31:39;;;;;;;11.20;10.60;;;9.20;99.90;;;;;;4958590;28;20254;-77
2024/01/02 08:34:09;;;;;;;11.03;10.43;;;9.30;99.90;;;;;;4971015;28;20199;-79
2024/01/02 08:36:37;;;;;;;11.03;10.43;;;9.40;99.90;;;;;;4942822;29;20206;-76
2024/01/02 08:39:07;;;;;;;11.37;10.77;;;9.60;99.90;;;;;;4958197;28;20227;-76
2024/01/02 08:41:36;;;;;;;11.20;10.60;;;9.60;99.90;;;;;;4959149;29;20206;-76
2024/01/02 08:44:04;;;;;;;11.00;10.40;;;9.70;99.90;;;;;;4957074;29;20198;-78
2024/01/02 08:46:31;;;;;;;10.80;10.30;;;9.80;99.90;;;;;;4935260;29;20630;-77
2024/01/02 08:48:58;;;;;;;10.80;10.30;;;9.80;99.90;;;;;;4941045;29;21114;-75
2024/01/02 08:51:25;;;;;;;11.23;10.63;;;10.00;99.90;;;;;;4941866;28;20203;-80
2024/01/02 08:53:55;;;;;;;11.27;10.67;;;9.90;99.90;;;;;;4961310;28;20825;-82
2024/01/02 08:56:25;;;;;;;11.10;10.50;;;10.00;99.90;;;;;;4934584;29;20206;-78
2024/01/02 08:58:52;;;;;;;11.20;10.60;;;10.10;99.90;;;;;;4946575;29;20246;-77
2024/01/02 09:01:19;;;;;;;10.90;10.40;;;10.10;99.90;;;;;;4941215;29;20202;-78
2024/01/02 09:03:47;;;;;;;11.30;10.70;;;10.20;99.90;;;;;;4941704;29;20722;-78
2024/01/02 09:06:17;;;;;;;11.20;10.60;;;10.20;99.90;;;;;;4958169;29;20203;-79
2024/01/02 09:08:45;;;;;;;11.30;10.70;;;10.30;99.90;;;;;;4939647;28;20215;-78
2024/01/02 09:11:15;;;;;;;11.30;10.70;;;10.30;99.90;;;;;;4957268;29;20206;-79
2024/01/02 09:13:42;;;;;;;11.40;10.80;;;10.30;99.90;;;;;;4955678;28;20227;-78
2024/01/02 09:16:10;;;;;;;11.77;11.17;;;10.40;99.90;;;;;;4963224;28;20218;-78
2024/01/02 09:18:37;;;;;;;11.80;11.20;;;10.50;99.90;;;;;;4935524;29;20206;-78
2024/01/02 09:21:05;;;;;;;12.00;11.40;;;10.50;99.90;;;;;;4956761;28;20719;-78
2024/01/02 09:23:34;;;;;;;12.00;11.40;;;10.50;99.90;;;;;;4956627;29;20232;-79
2024/01/02 09:26:04;;;;;;;11.70;11.10;;;10.50;99.90;;;;;;4940346;29;20230;-79
2024/01/02 09:28:34;;;;;;;11.30;10.70;;;10.50;99.90;;;;;;4940817;29;20195;-79
2024/01/02 09:31:02;;;;;;;11.40;10.80;;;10.50;99.90;;;;;;4941527;29;20203;-79
2024/01/02 09:33:29;;;;;;;11.40;10.80;;;10.50;99.90;;;;;;4957606;29;20653;-78
2024/01/02 09:35:57;;;;;;;11.23;10.63;;;10.50;99.90;;;;;;4957917;29;20190;-79
2024/01/02 09:38:24;;;;;;;11.30;10.70;;;10.50;99.90;;;;;;4957402;28;20725;-78
2024/01/02 09:41:30;;;;;;;11.40;10.80;;;10.60;99.90;;;;;;4957212;29;20205;-79
2024/01/02 09:44:09;;;;;;;11.10;10.57;;;10.60;99.90;;;;;;4950342;29;20222;-79
2024/01/02 09:46:46;;;;;;;11.80;11.20;;;10.70;99.90;;;;;;4954800;29;20242;-80
2024/01/02 09:49:29;;;;;;;11.30;10.70;;;10.70;99.90;;;;;;4950125;29;20199;-79
2024/01/02 09:52:41;;;;;;;11.07;10.53;;;10.70;99.90;;;;;;4921471;29;20665;-80
2024/01/02 09:55:17;;;;;;;11.20;10.60;;;10.70;99.90;;;;;;4939419;29;20215;-79
2024/01/02 09:57:55;;;;;;;11.20;10.60;;;10.70;99.90;;;;;;4953880;29;20200;-78
2024/01/02 10:00:48;;;;;;;11.20;10.60;;;10.80;99.90;;;;;;4948874;28;20215;-78
2024/01/02 10:03:33;;;;;;;10.93;10.43;;;10.80;99.90;;;;;;4956096;29;20199;-79
2024/01/02 10:06:21;;;;;;;11.20;10.60;;;10.80;99.90;;;;;;4957147;29;20289;-80
2024/01/02 10:09:02;;;;;;;11.53;10.93;;;10.90;99.90;;;;;;4948501;28;20225;-79
2024/01/02 10:11:44;;;;;;;11.40;10.80;;;10.90;99.90;;;;;;4959781;28;20666;-79
2024/01/02 10:14:31;;;;;;;11.60;11.00;;;10.90;99.90;;;;;;4959487;28;20198;-79
2024/01/02 10:17:13;;;;;;;11.50;10.90;;;10.90;99.90;;;;;;4932802;29;20200;-78
2024/01/02 10:20:04;;;;;;;11.60;11.00;;;10.90;99.90;;;;;;4955647;29;20232;-79
2024/01/02 10:22:37;;;;;;;11.20;10.60;;;11.00;99.90;;;;;;4956475;29;20194;-78
2024/01/02 10:25:20;;;;;;;11.57;10.97;;;11.10;99.90;;;;;;4956615;28;20198;-78
2024/01/02 10:28:19;;;;;;;11.80;11.20;;;11.10;99.90;;;;;;4938427;29;20191;-79
2024/01/02 10:31:02;;;;;;;11.80;11.20;;;11.10;99.90;;;;;;4937316;29;20226;-79
2024/01/02 10:33:39;;;;;;;11.80;11.20;;;11.10;99.90;;;;;;4955034;29;20257;-79
2024/01/02 10:36:11;;;;;;;11.90;11.30;;;11.10;99.90;;;;;;4952728;29;20219;-79
2024/01/02 10:39:07;;;;;;;11.60;11.00;;;11.20;99.90;;;;;;4957014;28;20219;-78
2024/01/02 10:41:47;;;;;;;11.50;10.90;;;11.20;99.90;;;;;;4937745;29;20199;-79
2024/01/02 10:44:36;;;;;;;11.30;10.70;;;11.20;99.90;;;;;;4954502;29;20216;-78
2024/01/02 10:47:09;;;;;;;11.30;10.70;;;11.20;99.90;;;;;;4952116;29;20673;-80
2024/01/02 10:49:45;;;;;;;10.80;10.30;;;11.20;99.90;;;;;;4940619;28;20211;-80
2024/01/02 10:52:25;;;;;;;10.70;10.20;;;11.20;99.90;;;;;;4950096;29;20246;-78
2024/01/02 10:55:18;;;;;;;11.10;10.60;;;11.20;99.90;;;;;;4943679;29;20194;-79
2024/01/02 10:58:00;;;;;;;10.50;10.00;;;11.20;99.90;;;;;;4936988;29;20209;-79
2024/01/02 11:00:32;;;;;;;10.00;9.50;;;11.20;99.90;;;;;;4945409;29;20226;-78
2024/01/02 11:03:09;;;;;;;9.80;9.30;;;11.30;99.90;;;;;;4955284;29;20556;-79
2024/01/02 11:05:44;;;;;;;9.70;9.20;;;11.20;99.90;;;;;;4941722;28;20217;-79
2024/01/02 11:08:14;;;;;;;9.30;8.90;;;11.10;99.90;;;;;;4956308;28;20253;-78
2024/01/02 11:10:59;;;;;;;9.70;9.20;;;11.10;99.90;;;;;;4952064;29;20227;-77
2024/01/02 11:13:28;;;;;;;9.00;8.60;;;11.10;99.90;;;;;;4945126;29;20314;-78
2024/01/02 11:16:05;;;;;;;9.00;8.60;;;11.10;99.90;;;;;;4924232;29;20216;-78
2024/01/02 11:18:34;;;;;;;8.90;8.50;;;11.10;99.90;;;;;;4948794;29;20210;-79
2024/01/02 11:21:20;;;;;;;8.60;8.20;;;11.10;99.90;;;;;;4933390;29;20308;-78
2024/01/02 11:23:52;;;;;;;8.27;7.87;;;11.10;99.90;;;;;;4917929;29;20227;-79
2024/01/02 11:26:27;;;;;;;8.40;8.00;;;11.10;99.90;;;;;;4931387;29;20213;-78
2024/01/02 11:29:00;;;;;;;8.37;7.97;;;11.10;99.90;;;;;;4948334;29;20196;-78
2024/01/02 11:31:30;;;;;;;8.20;7.80;;;11.10;99.90;;;;;;4934030;29;20288;-79
2024/01/02 11:34:16;;;;;;;8.40;8.00;;;11.10;99.90;;;;;;4918883;29;20201;-79
2024/01/02 11:36:48;;;;;;;8.27;7.87;;;11.10;99.90;;;;;;4919167;29;20849;-78
2024/01/02 11:39:22;;;;;;;8.30;7.90;;;11.10;99.90;;;;;;4950201;29;20256;-79
2024/01/02 11:42:13;;;;;;;8.40;8.00;;;11.10;1.00;;;;;;4927312;29;20661;-79
2024/01/02 11:45:00;;;;;;;8.43;8.03;;;11.20;99.90;;;;;;4927846;29;20236;-79
2024/01/02 11:47:33;;;;;;;9.40;9.00;;;11.20;91.90;;;;;;4949619;29;20207;-79
2024/01/02 11:50:03;;;;;;;9.37;8.97;;;11.20;1.00;;;;;;4933711;29;20208;-79
2024/01/02 11:52:33;;;;;;;9.40;9.00;;;11.30;1.00;;;;;;4921067;29;20208;-79
2024/01/02 11:55:12;;;;;;;9.87;9.37;;;11.30;1.00;;;;;;4921820;29;20281;-79
2024/01/02 11:57:54;;;;;;;10.27;9.77;;;11.40;99.90;;;;;;4921129;29;20732;-79
2024/01/02 12:00:55;;;;;;;10.40;9.90;;;11.50;1.00;;;;;;4920617;29;20212;-78
2024/01/02 12:03:48;;;;;;;10.90;10.40;;;11.50;1.00;;;;;;4944174;29;20303;-79
2024/01/02 12:06:42;;;;;;;10.50;10.00;;;11.50;1.00;;;;;;4934418;29;20740;-79
2024/01/02 12:09:15;;;;;;;10.30;9.80;;;11.60;1.00;;;;;;4927897;29;20208;-79
2024/01/02 12:12:31;;;;;;;10.40;9.90;;;11.60;1.00;;;;;;4920085;29;20229;-79
2024/01/02 12:15:12;;;;;;;10.77;10.27;;;11.60;1.00;;;;;;4936670;28;20229;-79
2024/01/02 12:17:52;;;;;;;11.27;10.77;;;11.50;1.00;;;;;;4959628;29;20250;-79
2024/01/02 12:20:23;;;;;;;11.30;10.70;;;11.60;1.00;;;;;;4957513;29;20246;-79
2024/01/02 12:22:51;;;;;;;11.10;10.60;;;11.60;1.00;;;;;;4954926;29;20788;-79
2024/01/02 12:25:23;;;;;;;11.10;10.60;;;11.60;1.00;;;;;;4951044;29;20203;-79
2024/01/02 12:27:53;;;;;;;11.20;10.70;;;11.60;1.00;;;;;;4939213;29;20200;-79
2024/01/02 12:30:22;;;;;;;10.77;10.27;;;11.50;1.00;;;;;;4938828;29;20206;-79
2024/01/02 12:33:14;;;;;;;10.40;9.90;;;11.60;1.00;;;;;;4964432;28;20214;-78
2024/01/02 12:36:03;;;;;;;10.53;10.03;;;11.60;1.00;;;;;;4938750;29;20236;-78
2024/01/02 12:38:45;;;;;;;10.80;10.30;;;11.60;1.00;;;;;;4949182;28;20229;-78
2024/01/02 12:41:24;;;;;;;11.00;10.50;;;11.60;1.00;;;;;;4948345;29;20225;-78
2024/01/02 12:43:59;;;;;;;11.20;10.70;;;11.60;1.00;;;;;;4957873;29;20191;-78
2024/01/02 12:46:52;;;;;;;11.20;10.70;;;11.60;1.00;;;;;;4942703;29;20199;-78
2024/01/02 12:49:26;;;;;;;11.00;10.50;;;11.60;1.00;;;;;;4941219;29;20617;-77
2024/01/02 12:52:04;;;;;;;10.80;10.30;;;11.60;1.00;;;;;;4953825;29;20190;-78
2024/01/02 12:54:40;;;;;;;11.20;10.70;;;11.50;1.00;;;;;;4957867;28;20543;-78
2024/01/02 12:57:09;;;;;;;11.10;10.60;;;11.50;1.00;;;;;;4941671;29;20230;-78